createdAt,value
2018-05-25T00:03:02.295Z,100326.36
2018-05-25T00:22:44.996Z,100319.77
2018-05-25T00:42:27.399Z,100325.36
2018-05-25T01:02:09.212Z,100330.00
2018-05-25T01:21:51.596Z,100310.54
2018-05-25T01:41:34.178Z,100322.15
2018-05-25T02:01:16.096Z,100307.48
2018-05-25T02:20:58.891Z,100292.37
2018-05-25T02:40:40.731Z,100281.73
2018-05-25T03:00:22.739Z,100289.84
2018-05-25T03:20:04.509Z,100304.83
2018-05-25T03:39:46.864Z,100296.59
2018-05-25T03:59:40.256Z,100296.09
2018-05-25T04:19:22.050Z,100295.39
2018-05-25T04:39:06.447Z,100288.97
2018-05-25T04:58:48.522Z,100283.40
2018-05-25T05:18:29.742Z,100278.98
2018-05-25T05:38:11.596Z,100277.53
2018-05-25T05:57:54.107Z,100261.63
2018-05-25T06:17:35.750Z,100256.48
2018-05-25T06:37:18.675Z,100251.91
2018-05-25T06:57:00.627Z,100249.98
2018-05-25T07:16:43.074Z,100256.07
2018-05-25T07:36:25.054Z,100248.78
2018-05-25T07:56:06.746Z,100236.56
2018-05-25T08:15:49.376Z,100223.35
2018-05-25T08:35:31.252Z,100229.82
2018-05-25T08:55:13.386Z,100221.08
2018-05-25T09:14:55.234Z,100208.12
2018-05-25T09:34:38.101Z,100211.52
2018-05-25T09:54:19.922Z,100201.08
2018-05-25T10:14:01.704Z,100219.36
2018-05-25T10:33:44.670Z,100234.55
2018-05-25T10:53:27.666Z,100219.82
2018-05-25T11:13:09.407Z,100192.25
2018-05-25T11:32:51.353Z,100187.29
2018-05-25T11:52:34.407Z,100166.05
2018-05-25T12:12:16.535Z,100181.11
2018-05-25T12:31:58.612Z,100179.77
2018-05-25T12:53:13.029Z,100157.12
2018-05-25T13:12:54.624Z,100115.61
2018-05-25T13:32:36.382Z,100117.38
2018-05-25T13:52:18.089Z,100089.49
2018-05-25T14:12:00.472Z,100079.00
2018-05-25T14:31:42.306Z,100082.64
2018-05-25T14:51:24.283Z,100089.36
2018-05-25T15:11:06.048Z,100093.92
2018-05-25T15:30:48.078Z,100085.73
2018-05-25T15:50:30.041Z,100139.27
2018-05-25T16:10:12.196Z,100142.30
2018-05-25T16:29:54.423Z,100144.80
2018-05-25T16:49:36.892Z,100161.54
2018-05-25T17:09:18.711Z,100178.95
2018-05-25T17:29:00.285Z,100214.88
2018-05-25T17:48:42.616Z,100212.20
2018-05-25T18:08:24.576Z,100238.73
2018-05-25T18:28:06.389Z,100248.64
2018-05-25T18:47:48.496Z,100263.50
2018-05-25T19:07:31.270Z,100299.23
2018-05-25T19:27:13.776Z,100324.45
2018-05-25T19:46:55.695Z,100320.66
2018-05-25T20:06:37.500Z,100306.03
2018-05-25T20:26:19.499Z,100297.30
2018-05-25T20:46:01.072Z,100292.88
2018-05-25T21:05:42.819Z,100299.37
2018-05-25T21:25:25.159Z,100298.34
2018-05-25T21:45:07.522Z,100314.56
2018-05-25T22:04:49.909Z,100324.34
2018-05-25T22:24:38.188Z,100333.45
2018-05-25T22:44:32.546Z,100340.70
2018-05-25T23:04:14.896Z,100347.53
2018-05-25T23:23:56.499Z,100349.83
2018-05-25T23:43:39.612Z,100373.93
